createdAt,value
2019-03-21T00:01:48.352Z,102594.00
2019-03-21T00:04:19.490Z,102595.00
2019-03-21T00:06:51.062Z,102596.00
2019-03-21T00:09:24.590Z,102582.00
2019-03-21T00:12:06.293Z,102591.00
2019-03-21T00:15:10.675Z,102587.00
2019-03-21T00:17:51.213Z,102575.00
2019-03-21T00:20:22.386Z,102563.00
2019-03-21T00:22:53.918Z,102562.00
2019-03-21T00:25:25.747Z,102565.00
2019-03-21T00:27:58.479Z,102566.00
2019-03-21T00:30:29.633Z,102565.00
2019-03-21T00:33:01.870Z,102565.00
2019-03-21T00:35:33.019Z,102567.00
2019-03-21T00:38:04.517Z,102564.00
2019-03-21T00:40:39.204Z,102573.00
2019-03-21T00:43:12.186Z,102575.00
2019-03-21T00:45:43.205Z,102562.00
2019-03-21T00:48:16.642Z,102573.00
2019-03-21T00:50:47.701Z,102568.00
2019-03-21T00:53:18.705Z,102573.00
2019-03-21T00:55:51.654Z,102568.00
2019-03-21T00:58:22.691Z,102566.00
2019-03-21T01:00:56.006Z,102563.00
2019-03-21T01:03:27.467Z,102556.00
2019-03-21T01:05:58.548Z,102564.00
2019-03-21T01:08:29.570Z,102552.00
2019-03-21T01:11:00.520Z,102554.00
2019-03-21T01:13:34.054Z,102547.00
2019-03-21T01:16:05.262Z,102549.00
2019-03-21T01:18:37.126Z,102542.00
2019-03-21T01:21:08.647Z,102537.00
2019-03-21T01:23:39.939Z,102540.00
2019-03-21T01:26:11.132Z,102547.00
2019-03-21T01:28:42.259Z,102543.00
2019-03-21T01:31:13.338Z,102536.00
2019-03-21T01:33:44.502Z,102542.00
2019-03-21T01:36:15.630Z,102545.00
2019-03-21T01:38:48.970Z,102548.00
2019-03-21T01:41:20.122Z,102549.00
2019-03-21T01:43:51.183Z,102543.00
2019-03-21T01:46:22.138Z,102536.00
2019-03-21T01:48:53.402Z,102540.00
2019-03-21T01:51:24.648Z,102532.00
2019-03-21T01:53:56.448Z,102522.00
2019-03-21T01:56:28.894Z,102527.00
2019-03-21T01:58:59.872Z,102532.00
2019-03-21T02:01:52.400Z,102528.00
2019-03-21T02:04:23.532Z,102523.00
2019-03-21T02:06:54.503Z,102526.00
2019-03-21T02:09:25.453Z,102528.00
2019-03-21T02:11:56.539Z,102523.00
2019-03-21T02:14:27.820Z,102523.00
2019-03-21T02:16:58.749Z,102519.00
2019-03-21T02:19:29.907Z,102516.00
2019-03-21T02:22:01.444Z,102521.00
2019-03-21T02:24:32.689Z,102526.00
2019-03-21T02:27:04.019Z,102515.00
2019-03-21T02:29:35.262Z,102520.00
2019-03-21T02:32:06.276Z,102514.00
2019-03-21T02:34:37.496Z,102517.00
2019-03-21T02:37:08.327Z,102517.00
2019-03-21T02:39:39.970Z,102515.00
2019-03-21T02:42:11.821Z,102514.00
2019-03-21T02:44:42.925Z,102512.00
2019-03-21T02:47:13.787Z,102515.00
2019-03-21T02:49:44.782Z,102505.00
2019-03-21T02:52:15.976Z,102505.00
2019-03-21T02:54:47.047Z,102516.00
2019-03-21T02:57:17.931Z,102520.00
2019-03-21T02:59:48.787Z,102510.00
2019-03-21T03:02:19.769Z,102520.00
2019-03-21T03:04:50.771Z,102512.00
2019-03-21T03:07:21.860Z,102516.00
2019-03-21T03:09:53.124Z,102519.00
2019-03-21T03:12:24.494Z,102520.00
2019-03-21T03:30:10.036Z,102530.00
2019-03-21T03:32:41.358Z,102529.00
2019-03-21T03:35:13.228Z,102530.00
2019-03-21T03:37:44.532Z,102532.00
2019-03-21T03:40:25.799Z,102540.00
2019-03-21T03:42:56.926Z,102535.00
2019-03-21T03:45:37.926Z,102525.00
2019-03-21T03:48:04.835Z,102522.00
2019-03-21T03:50:36.421Z,102522.00
2019-03-21T03:53:07.640Z,102514.00
2019-03-21T03:55:39.266Z,102520.00
2019-03-21T03:58:14.697Z,102522.00
2019-03-21T04:00:46.774Z,102520.00
2019-03-21T04:03:18.105Z,102523.00
2019-03-21T04:05:49.996Z,102532.00
2019-03-21T04:08:21.485Z,102529.00
2019-03-21T04:10:52.623Z,102527.00
2019-03-21T04:13:23.768Z,102527.00
2019-03-21T04:16:06.187Z,102526.00
2019-03-21T04:18:37.111Z,102539.00
2019-03-21T04:21:08.512Z,102538.00
2019-03-21T04:23:39.914Z,102530.00
2019-03-21T04:26:25.385Z,102528.00
2019-03-21T04:28:56.476Z,102529.00
2019-03-21T04:31:29.864Z,102535.00
2019-03-21T04:34:03.512Z,102529.00
2019-03-21T04:36:34.558Z,102539.00
2019-03-21T04:39:08.847Z,102534.00
2019-03-21T04:41:41.239Z,102534.00
2019-03-21T04:44:12.400Z,102547.00
2019-03-21T04:46:43.581Z,102541.00
2019-03-21T04:49:14.972Z,102540.00
2019-03-21T04:51:45.926Z,102551.00
2019-03-21T04:54:16.887Z,102544.00
2019-03-21T04:56:48.106Z,102549.00
2019-03-21T04:59:19.374Z,102535.00
2019-03-21T05:01:50.436Z,102543.00
2019-03-21T05:04:22.074Z,102545.00
2019-03-21T05:06:53.051Z,102551.00
2019-03-21T05:09:24.089Z,102545.00
2019-03-21T05:11:55.015Z,102556.00
2019-03-21T05:14:26.006Z,102552.00
2019-03-21T05:16:57.153Z,102549.00
2019-03-21T05:19:28.740Z,102553.00
2019-03-21T05:22:00.025Z,102554.00
2019-03-21T05:24:31.654Z,102555.00
2019-03-21T05:27:02.607Z,102544.00
2019-03-21T05:29:33.963Z,102547.00
2019-03-21T05:32:05.359Z,102552.00
2019-03-21T05:34:36.438Z,102561.00
2019-03-21T05:37:07.654Z,102551.00
2019-03-21T05:39:38.985Z,102567.00
2019-03-21T05:42:16.654Z,102561.00
2019-03-21T05:44:47.846Z,102554.00
2019-03-21T05:47:18.711Z,102562.00
2019-03-21T05:49:50.122Z,102563.00
2019-03-21T05:52:21.362Z,102564.00
2019-03-21T05:54:54.734Z,102564.00
2019-03-21T05:57:26.192Z,102572.00
2019-03-21T05:59:57.407Z,102572.00
2019-03-21T06:02:28.561Z,102564.00
2019-03-21T06:04:59.847Z,102565.00
2019-03-21T06:07:46.786Z,102575.00
2019-03-21T06:10:18.607Z,102578.00
2019-03-21T06:12:49.886Z,102586.00
2019-03-21T06:15:25.617Z,102581.00
2019-03-21T06:18:31.630Z,102571.00
2019-03-21T06:22:02.800Z,102584.00
2019-03-21T06:25:19.262Z,102589.00
2019-03-21T06:27:50.390Z,102578.00
2019-03-21T06:30:21.321Z,102591.00
2019-03-21T06:32:52.540Z,102576.00
2019-03-21T06:35:27.628Z,102588.00
2019-03-21T06:37:59.155Z,102583.00
2019-03-21T06:40:30.231Z,102596.00
2019-03-21T06:43:01.618Z,102582.00
2019-03-21T06:45:47.574Z,102589.00
2019-03-21T06:48:11.275Z,102589.00
2019-03-21T06:50:42.392Z,102597.00
2019-03-21T06:53:13.681Z,102591.00
2019-03-21T06:55:44.684Z,102582.00
2019-03-21T06:58:15.825Z,102584.00
2019-03-21T07:00:47.609Z,102594.00
2019-03-21T07:03:18.726Z,102600.00
2019-03-21T07:05:50.141Z,102598.00
2019-03-21T07:08:21.400Z,102592.00
2019-03-21T07:10:52.574Z,102591.00
2019-03-21T07:13:23.681Z,102591.00
2019-03-21T07:15:55.023Z,102586.00
2019-03-21T07:18:26.346Z,102582.00
2019-03-21T07:20:57.579Z,102592.00
2019-03-21T07:23:31.806Z,102596.00
2019-03-21T07:26:02.868Z,102601.00
2019-03-21T07:28:34.305Z,102588.00
2019-03-21T07:31:07.363Z,102596.00
2019-03-21T07:33:38.221Z,102583.00
2019-03-21T07:36:09.123Z,102583.00
2019-03-21T07:38:40.422Z,102587.00
2019-03-21T07:41:11.855Z,102590.00
2019-03-21T07:43:42.943Z,102588.00
2019-03-21T07:46:14.190Z,102599.00
2019-03-21T07:48:45.208Z,102592.00
2019-03-21T07:51:16.199Z,102586.00
2019-03-21T07:53:47.391Z,102598.00
2019-03-21T07:56:18.516Z,102590.00
2019-03-21T07:58:49.969Z,102587.00
2019-03-21T08:01:21.120Z,102585.00
2019-03-21T08:03:52.237Z,102586.00
2019-03-21T08:06:23.813Z,102589.00
2019-03-21T08:08:55.207Z,102582.00
2019-03-21T08:11:26.193Z,102592.00
2019-03-21T08:13:57.538Z,102595.00
2019-03-21T08:16:28.874Z,102606.00
2019-03-21T08:18:59.983Z,102602.00
2019-03-21T08:21:30.887Z,102603.00
2019-03-21T08:24:01.838Z,102598.00
2019-03-21T08:26:33.127Z,102586.00
2019-03-21T08:29:04.167Z,102594.00
2019-03-21T08:31:35.254Z,102599.00
2019-03-21T08:34:07.577Z,102593.00
2019-03-21T08:36:38.616Z,102596.00
2019-03-21T08:39:11.384Z,102588.00
2019-03-21T08:41:44.545Z,102588.00
2019-03-21T08:44:15.535Z,102580.00
2019-03-21T08:46:47.088Z,102589.00
2019-03-21T08:49:18.193Z,102587.00
2019-03-21T08:51:49.586Z,102594.00
2019-03-21T08:54:20.665Z,102592.00
2019-03-21T08:56:51.802Z,102590.00
2019-03-21T08:59:23.858Z,102596.00
2019-03-21T09:01:54.990Z,102592.00
2019-03-21T09:04:26.180Z,102583.00
2019-03-21T09:06:57.679Z,102595.00
2019-03-21T09:09:28.802Z,102589.00
2019-03-21T09:12:05.901Z,102597.00
2019-03-21T09:14:37.061Z,102592.00
2019-03-21T09:17:08.438Z,102598.00
2019-03-21T09:19:39.478Z,102593.00
2019-03-21T09:22:10.492Z,102591.00
2019-03-21T09:24:41.601Z,102598.00
2019-03-21T09:27:12.956Z,102604.00
2019-03-21T09:29:53.110Z,102606.00
2019-03-21T09:32:16.771Z,102604.00
2019-03-21T09:34:47.928Z,102598.00
2019-03-21T09:37:18.947Z,102592.00
2019-03-21T09:39:50.111Z,102591.00
2019-03-21T09:42:21.002Z,102591.00
2019-03-21T09:44:52.184Z,102591.00
2019-03-21T09:47:23.279Z,102586.00
2019-03-21T09:49:54.578Z,102590.00
2019-03-21T09:52:26.160Z,102594.00
2019-03-21T09:54:57.154Z,102593.00
2019-03-21T09:57:29.286Z,102584.00
2019-03-21T10:00:00.406Z,102588.00
2019-03-21T10:02:31.762Z,102581.00
2019-03-21T10:05:02.946Z,102582.00
2019-03-21T10:07:34.148Z,102595.00
2019-03-21T10:10:06.064Z,102579.00
2019-03-21T10:12:37.328Z,102578.00
2019-03-21T10:15:08.786Z,102598.00
2019-03-21T10:17:39.969Z,102584.00
2019-03-21T10:20:11.240Z,102596.00
2019-03-21T10:22:42.625Z,102595.00
2019-03-21T10:25:13.807Z,102603.00
2019-03-21T10:27:45.725Z,102592.00
2019-03-21T10:30:33.666Z,102593.00
2019-03-21T10:33:05.645Z,102593.00
2019-03-21T10:35:37.128Z,102588.00
2019-03-21T10:38:08.993Z,102584.00
2019-03-21T10:40:40.765Z,102584.00
2019-03-21T10:43:11.907Z,102590.00
2019-03-21T10:45:43.376Z,102586.00
2019-03-21T10:48:14.543Z,102581.00
2019-03-21T10:50:45.894Z,102582.00
2019-03-21T10:53:17.143Z,102590.00
2019-03-21T10:55:49.568Z,102584.00
2019-03-21T10:58:20.698Z,102567.00
2019-03-21T11:00:52.450Z,102576.00
2019-03-21T11:03:23.716Z,102577.00
2019-03-21T11:05:55.008Z,102575.00
2019-03-21T11:08:26.089Z,102574.00
2019-03-21T11:10:57.603Z,102578.00
2019-03-21T11:13:28.824Z,102573.00
2019-03-21T11:16:00.031Z,102567.00
2019-03-21T11:18:36.125Z,102570.00
2019-03-21T11:21:04.262Z,102575.00
2019-03-21T11:23:35.294Z,102569.00
2019-03-21T11:26:06.448Z,102576.00
2019-03-21T11:28:37.594Z,102573.00
2019-03-21T11:31:08.716Z,102564.00
2019-03-21T11:33:40.114Z,102570.00
2019-03-21T11:36:11.459Z,102570.00
2019-03-21T11:38:43.316Z,102563.00
2019-03-21T11:41:14.514Z,102560.00
2019-03-21T11:43:48.994Z,102558.00
2019-03-21T11:46:20.463Z,102559.00
2019-03-21T11:48:51.629Z,102565.00
2019-03-21T11:51:23.078Z,102566.00
2019-03-21T11:53:54.226Z,102562.00
2019-03-21T11:56:25.479Z,102562.00
2019-03-21T11:58:56.974Z,102558.00
2019-03-21T12:01:28.398Z,102567.00
2019-03-21T12:03:59.885Z,102560.00
2019-03-21T12:06:31.641Z,102559.00
2019-03-21T12:09:03.157Z,102550.00
2019-03-21T12:11:34.631Z,102559.00
2019-03-21T12:14:05.998Z,102556.00
2019-03-21T12:16:37.214Z,102550.00
2019-03-21T12:19:08.305Z,102538.00
2019-03-21T12:21:39.431Z,102536.00
2019-03-21T12:24:10.539Z,102538.00
2019-03-21T12:26:41.722Z,102546.00
2019-03-21T12:29:13.214Z,102528.00
2019-03-21T12:31:44.273Z,102524.00
2019-03-21T12:34:15.653Z,102507.00
2019-03-21T12:36:46.701Z,102520.00
2019-03-21T12:39:17.789Z,102515.00
2019-03-21T12:41:49.043Z,102520.00
2019-03-21T12:44:21.541Z,102524.00
2019-03-21T12:46:52.601Z,102518.00
2019-03-21T12:49:23.711Z,102523.00
2019-03-21T12:51:54.611Z,102520.00
2019-03-21T12:54:26.038Z,102518.00
2019-03-21T12:56:57.753Z,102516.00
2019-03-21T12:59:28.872Z,102510.00
2019-03-21T13:01:59.961Z,102500.00
2019-03-21T13:04:32.181Z,102502.00
2019-03-21T13:07:03.577Z,102507.00
2019-03-21T13:09:34.665Z,102499.00
2019-03-21T13:12:05.716Z,102507.00
2019-03-21T13:14:37.526Z,102497.00
2019-03-21T13:17:08.412Z,102493.00
2019-03-21T13:19:39.659Z,102492.00
2019-03-21T13:22:10.980Z,102499.00
2019-03-21T13:24:42.319Z,102492.00
2019-03-21T13:27:13.407Z,102491.00
2019-03-21T13:29:44.600Z,102499.00
2019-03-21T13:32:15.965Z,102492.00
2019-03-21T13:34:47.246Z,102498.00
2019-03-21T13:37:18.706Z,102486.00
2019-03-21T13:39:49.762Z,102483.00
2019-03-21T13:42:22.140Z,102493.00
2019-03-21T13:44:53.233Z,102490.00
2019-03-21T13:47:24.708Z,102483.00
2019-03-21T13:49:56.383Z,102480.00
2019-03-21T13:52:28.421Z,102485.00
2019-03-21T13:54:59.357Z,102477.00
2019-03-21T13:57:30.321Z,102478.00
2019-03-21T14:00:01.469Z,102474.00
2019-03-21T14:02:32.868Z,102472.00
2019-03-21T14:05:04.325Z,102464.00
2019-03-21T14:07:35.600Z,102467.00
2019-03-21T14:10:07.533Z,102460.00
2019-03-21T14:12:38.633Z,102454.00
2019-03-21T14:15:10.314Z,102456.00
2019-03-21T14:17:41.438Z,102450.00
2019-03-21T14:20:13.285Z,102439.00
2019-03-21T14:22:44.410Z,102445.00
2019-03-21T14:25:15.627Z,102443.00
2019-03-21T14:27:46.895Z,102445.00
2019-03-21T14:30:18.831Z,102442.00
2019-03-21T14:32:49.959Z,102439.00
2019-03-21T14:35:21.141Z,102431.00
2019-03-21T14:37:52.166Z,102424.00
2019-03-21T14:40:23.311Z,102435.00
2019-03-21T14:42:54.237Z,102433.00
2019-03-21T14:45:25.918Z,102434.00
2019-03-21T14:47:58.136Z,102437.00
2019-03-21T14:50:29.251Z,102429.00
2019-03-21T14:53:00.765Z,102432.00
2019-03-21T14:55:31.788Z,102429.00
2019-03-21T14:58:03.069Z,102429.00
2019-03-21T15:00:34.364Z,102437.00
2019-03-21T15:03:05.494Z,102433.00
2019-03-21T15:05:36.466Z,102433.00
2019-03-21T15:08:07.588Z,102434.00
2019-03-21T15:10:38.708Z,102429.00
2019-03-21T15:13:10.114Z,102423.00
2019-03-21T15:15:40.979Z,102436.00
2019-03-21T15:18:12.380Z,102433.00
2019-03-21T15:20:43.710Z,102428.00
2019-03-21T15:23:15.111Z,102431.00
2019-03-21T15:25:46.677Z,102429.00
2019-03-21T15:28:18.148Z,102426.00
2019-03-21T15:30:49.541Z,102428.00
2019-03-21T15:33:21.073Z,102426.00
2019-03-21T15:35:53.032Z,102426.00
2019-03-21T15:38:24.473Z,102426.00
2019-03-21T15:40:55.774Z,102418.00
2019-03-21T15:43:27.150Z,102423.00
2019-03-21T15:45:58.322Z,102412.00
2019-03-21T15:48:29.445Z,102418.00
2019-03-21T15:51:04.714Z,102417.00
2019-03-21T15:53:33.453Z,102427.00
2019-03-21T15:56:04.787Z,102430.00
2019-03-21T15:58:36.234Z,102421.00
2019-03-21T16:01:07.787Z,102426.00
2019-03-21T16:03:39.155Z,102432.00
2019-03-21T16:06:10.338Z,102438.00
2019-03-21T16:08:44.991Z,102431.00
2019-03-21T16:11:17.018Z,102435.00
2019-03-21T16:13:48.127Z,102429.00
2019-03-21T16:16:19.543Z,102434.00
2019-03-21T16:18:50.656Z,102434.00
2019-03-21T16:21:21.967Z,102427.00
2019-03-21T16:24:04.592Z,102420.00
2019-03-21T16:26:29.844Z,102426.00
2019-03-21T16:29:00.994Z,102424.00
2019-03-21T16:31:32.367Z,102412.00
2019-03-21T16:34:03.667Z,102418.00
2019-03-21T16:36:35.069Z,102419.00
2019-03-21T16:39:08.595Z,102414.00
2019-03-21T16:41:39.992Z,102425.00
2019-03-21T16:44:11.100Z,102421.00
2019-03-21T16:46:46.189Z,102419.00
2019-03-21T16:49:17.850Z,102412.00
2019-03-21T16:51:48.859Z,102411.00
2019-03-21T16:54:20.200Z,102414.00
2019-03-21T16:56:51.226Z,102417.00
2019-03-21T16:59:22.349Z,102416.00
2019-03-21T17:01:53.761Z,102408.00
2019-03-21T17:04:26.457Z,102406.00
2019-03-21T17:06:57.562Z,102415.00
2019-03-21T17:09:28.821Z,102407.00
2019-03-21T17:11:59.838Z,102416.00
2019-03-21T17:14:30.827Z,102415.00
2019-03-21T17:17:01.939Z,102426.00
2019-03-21T17:19:32.965Z,102419.00
2019-03-21T17:22:03.987Z,102427.00
2019-03-21T17:24:35.032Z,102427.00
2019-03-21T17:27:06.186Z,102422.00
2019-03-21T17:29:37.340Z,102423.00
2019-03-21T17:32:08.377Z,102418.00
2019-03-21T17:34:40.766Z,102420.00
2019-03-21T17:37:12.111Z,102427.00
2019-03-21T17:39:43.401Z,102426.00
2019-03-21T17:42:15.093Z,102427.00
2019-03-21T17:44:46.095Z,102421.00
2019-03-21T17:47:17.344Z,102425.00
2019-03-21T17:49:48.374Z,102427.00
2019-03-21T17:52:19.375Z,102422.00
2019-03-21T17:54:50.335Z,102428.00
2019-03-21T17:57:33.678Z,102430.00
2019-03-21T17:59:54.284Z,102432.00
2019-03-21T18:02:26.466Z,102429.00
2019-03-21T18:04:57.532Z,102426.00
2019-03-21T18:07:28.428Z,102437.00
2019-03-21T18:09:59.756Z,102440.00
2019-03-21T18:12:31.046Z,102438.00
2019-03-21T18:15:01.892Z,102439.00
2019-03-21T18:17:32.828Z,102442.00
2019-03-21T18:20:03.952Z,102439.00
2019-03-21T18:22:35.089Z,102438.00
2019-03-21T18:25:06.932Z,102438.00
2019-03-21T18:27:37.946Z,102442.00
2019-03-21T18:30:09.520Z,102450.00
2019-03-21T18:32:40.557Z,102443.00
2019-03-21T18:35:12.136Z,102447.00
2019-03-21T18:37:43.899Z,102435.00
2019-03-21T18:40:15.223Z,102437.00
2019-03-21T18:42:46.615Z,102446.00
2019-03-21T18:45:17.886Z,102441.00
2019-03-21T18:47:49.019Z,102443.00
2019-03-21T18:50:20.569Z,102441.00
2019-03-21T18:52:51.978Z,102441.00
2019-03-21T18:55:23.796Z,102447.00
2019-03-21T18:57:55.272Z,102448.00
2019-03-21T19:00:26.235Z,102454.00
2019-03-21T19:02:57.202Z,102443.00
2019-03-21T19:05:28.251Z,102447.00
2019-03-21T19:07:59.303Z,102448.00
2019-03-21T19:10:30.318Z,102447.00
2019-03-21T19:13:01.535Z,102453.00
2019-03-21T19:15:32.603Z,102454.00
2019-03-21T19:18:03.797Z,102460.00
2019-03-21T19:20:34.694Z,102458.00
2019-03-21T19:23:05.843Z,102460.00
2019-03-21T19:25:37.235Z,102455.00
2019-03-21T19:28:08.359Z,102458.00
2019-03-21T19:30:39.445Z,102462.00
2019-03-21T19:33:10.585Z,102457.00
2019-03-21T19:35:41.632Z,102466.00
2019-03-21T19:38:12.664Z,102460.00
2019-03-21T19:40:43.760Z,102461.00
2019-03-21T19:43:14.917Z,102457.00
2019-03-21T19:45:46.439Z,102462.00
2019-03-21T19:48:17.476Z,102462.00
2019-03-21T19:50:48.489Z,102458.00
2019-03-21T19:53:19.828Z,102454.00
2019-03-21T19:55:51.208Z,102456.00
2019-03-21T19:58:22.815Z,102467.00
2019-03-21T20:00:53.916Z,102468.00
2019-03-21T20:03:25.006Z,102460.00
2019-03-21T20:06:00.529Z,102464.00
2019-03-21T20:08:29.286Z,102463.00
2019-03-21T20:11:00.597Z,102468.00
2019-03-21T20:13:31.727Z,102468.00
2019-03-21T20:16:02.819Z,102478.00
2019-03-21T20:18:34.350Z,102466.00
2019-03-21T20:21:05.972Z,102468.00
2019-03-21T20:23:37.385Z,102469.00
2019-03-21T20:26:13.044Z,102466.00
2019-03-21T20:28:44.401Z,102471.00
2019-03-21T20:31:19.082Z,102466.00
2019-03-21T20:33:50.185Z,102475.00
2019-03-21T20:36:21.446Z,102472.00
2019-03-21T20:38:52.688Z,102478.00
2019-03-21T20:41:35.867Z,102470.00
2019-03-21T20:44:15.129Z,102472.00
2019-03-21T20:46:40.287Z,102472.00
2019-03-21T20:49:11.654Z,102475.00
2019-03-21T20:51:43.127Z,102472.00
2019-03-21T20:54:14.802Z,102464.00
2019-03-21T20:56:45.859Z,102461.00
2019-03-21T20:59:16.878Z,102466.00
2019-03-21T21:01:48.087Z,102476.00
2019-03-21T21:04:19.517Z,102471.00
2019-03-21T21:06:50.445Z,102465.00
2019-03-21T21:09:21.839Z,102461.00
2019-03-21T21:11:52.979Z,102465.00
2019-03-21T21:14:23.922Z,102466.00
2019-03-21T21:16:55.056Z,102455.00
2019-03-21T21:19:26.697Z,102471.00
2019-03-21T21:21:57.847Z,102457.00
2019-03-21T21:24:29.258Z,102463.00
2019-03-21T21:27:00.889Z,102458.00
2019-03-21T21:29:32.204Z,102455.00
2019-03-21T21:32:03.315Z,102465.00
2019-03-21T21:34:34.527Z,102463.00
2019-03-21T21:37:05.949Z,102470.00
2019-03-21T21:39:36.996Z,102472.00
2019-03-21T21:42:08.037Z,102487.00
2019-03-21T21:44:39.043Z,102487.00
2019-03-21T21:47:10.163Z,102485.00
2019-03-21T21:49:41.234Z,102489.00
2019-03-21T21:52:13.496Z,102471.00
2019-03-21T21:54:44.657Z,102486.00
2019-03-21T21:57:16.004Z,102492.00
2019-03-21T21:59:47.125Z,102485.00
2019-03-21T22:02:18.520Z,102489.00
2019-03-21T22:04:49.559Z,102491.00
2019-03-21T22:07:20.606Z,102488.00
2019-03-21T22:09:51.704Z,102495.00
2019-03-21T22:12:23.155Z,102484.00
2019-03-21T22:14:54.268Z,102494.00
2019-03-21T22:17:25.333Z,102488.00
2019-03-21T22:19:56.609Z,102498.00
2019-03-21T22:22:27.546Z,102498.00
2019-03-21T22:24:59.136Z,102499.00
2019-03-21T22:27:30.496Z,102494.00
2019-03-21T22:30:04.185Z,102493.00
2019-03-21T22:32:34.786Z,102489.00
2019-03-21T22:35:06.267Z,102492.00
2019-03-21T22:37:37.430Z,102495.00
2019-03-21T22:40:10.047Z,102491.00
2019-03-21T22:42:41.242Z,102498.00
2019-03-21T22:45:12.852Z,102492.00
2019-03-21T22:47:44.089Z,102495.00
2019-03-21T22:50:15.587Z,102488.00
2019-03-21T22:52:46.800Z,102479.00
2019-03-21T22:55:17.946Z,102486.00
2019-03-21T22:57:48.999Z,102490.00
2019-03-21T23:00:22.387Z,102480.00
2019-03-21T23:02:55.468Z,102476.00
2019-03-21T23:05:26.605Z,102487.00
2019-03-21T23:07:57.967Z,102488.00
2019-03-21T23:10:29.104Z,102485.00
2019-03-21T23:13:00.196Z,102475.00
2019-03-21T23:15:31.530Z,102483.00
2019-03-21T23:18:02.942Z,102476.00
2019-03-21T23:20:34.028Z,102463.00
2019-03-21T23:23:05.447Z,102465.00
2019-03-21T23:25:36.873Z,102459.00
2019-03-21T23:28:08.274Z,102467.00
2019-03-21T23:30:39.364Z,102456.00
2019-03-21T23:33:10.643Z,102452.00
2019-03-21T23:35:41.869Z,102452.00
2019-03-21T23:38:12.907Z,102470.00
2019-03-21T23:40:44.487Z,102462.00
2019-03-21T23:43:15.697Z,102449.00
2019-03-21T23:45:47.123Z,102445.00
2019-03-21T23:48:18.632Z,102445.00
2019-03-21T23:50:49.717Z,102441.00
2019-03-21T23:53:21.043Z,102437.00
2019-03-21T23:55:52.187Z,102442.00
2019-03-21T23:58:23.112Z,102445.00
